This is the latest recevied weather packets stored in our database for station/object VA7SHG-1. If no packets are shown the sender has not sent any weather packets the latest 10 day(s).
| Time | Temp. | Humidity | Pressure | Rain* | Wind** | Luminosity | Snow |
|---|---|---|---|---|---|---|---|
| 1778116532 | 13.89° C | 76% | 1020.4 hPa | 0 mm | - | 41 W/m² | - |
| 1778112323 | 13.89° C | 79% | 1020.4 hPa | 0 mm | - | 53 W/m² | - |
| 1778109923 | 13.89° C | 80% | 1020.4 hPa | 0 mm | - | 120 W/m² | - |
| 1778108131 | 13.33° C | 83% | 1020.5 hPa | 0 mm | - | 76 W/m² | - |
| 1778105731 | 13.89° C | 81% | 1020.7 hPa | 0 mm | - | 72 W/m² | - |
| 1778102724 | 13.89° C | 79% | 1020.6 hPa | 0 mm | - | 82 W/m² | - |
| 1778102131 | 13.89° C | 78% | 1020.5 hPa | 0 mm | - | 116 W/m² | - |
| 1778101522 | 14.44° C | 76% | 1020.5 hPa | 0 mm | - | 123 W/m² | - |
| 1778088323 | 14.44° C | 77% | 1019.7 hPa | 0 mm | - | 395 W/m² | - |
| 1778087731 | 13.89° C | 77% | 1019.9 hPa | 0 mm | - | 296 W/m² | - |
| 1778085923 | 13.89° C | 78% | 1019.9 hPa | 0 mm | - | 252 W/m² | - |
| 1778079332 | 12.22° C | 83% | 1019.3 hPa | 0 mm | - | 140 W/m² | - |
| 1778072764 | 11.67° C | 87% | 1018.7 hPa | 0 mm | - | 11 W/m² | - |
| 1778070323 | 11.67° C | 87% | 1018.5 hPa | 0 mm | - | 1 W/m² | - |
| 1778069732 | 11.67° C | 88% | 1018.4 hPa | 0 mm | - | 0 W/m² | - |
| 1778069124 | 11.67° C | 87% | 1018.3 hPa | 0 mm | - | 0 W/m² | - |
| 1778068531 | 11.67° C | 87% | 1018.2 hPa | 0 mm | - | 0 W/m² | - |
| 1778060744 | 12.22° C | 86% | 1017.1 hPa | 0 mm | - | 0 W/m² | - |
| 1778051165 | 14.44° C | 78% | 1016.3 hPa | 0 mm | - | 0 W/m² | - |
| 1778048116 | 15° C | 75% | 1015.8 hPa | 0 mm | - | 0 W/m² | - |
| 1778046931 | 15.56° C | 73% | 1015.6 hPa | 0 mm | - | 0 W/m² | - |
| 1778041524 | 16.67° C | 68% | 1015 hPa | 0 mm | - | 0 W/m² | - |
| 1778036725 | 18.33° C | 65% | 1014.1 hPa | 0 mm | - | 23 W/m² | - |
| 1778028935 | 21.67° C | 53% | 1013.5 hPa | 0 mm | - | 303 W/m² | - |
| 1778023544 | 22.78° C | 50% | 1013.9 hPa | 0 mm | - | 565 W/m² | - |
* Rain latest hour (hover to see other rain measurements)
** Current wind speed in m/s (hover to see current wind gust speed)